sensor_id;sensor_type;location;lat;lon;timestamp;P1;durP1;ratioP1;P2;durP2;ratioP2
37157;SDS011;23050;51.776;22.638;2022-08-19T00:01:45;12.02;;;3.83;;
37157;SDS011;23050;51.776;22.638;2022-08-19T00:04:13;1.67;;;1.58;;
37157;SDS011;23050;51.776;22.638;2022-08-19T00:06:41;2.03;;;1.73;;
37157;SDS011;23050;51.776;22.638;2022-08-19T00:09:09;1.50;;;1.40;;
37157;SDS011;23050;51.776;22.638;2022-08-19T00:11:37;2.20;;;1.77;;
37157;SDS011;23050;51.776;22.638;2022-08-19T00:14:07;2.47;;;1.58;;
37157;SDS011;23050;51.776;22.638;2022-08-19T00:16:35;2.33;;;1.20;;
37157;SDS011;23050;51.776;22.638;2022-08-19T00:19:05;4.13;;;2.40;;
37157;SDS011;23050;51.776;22.638;2022-08-19T00:21:30;4.97;;;2.95;;
37157;SDS011;23050;51.776;22.638;2022-08-19T00:23:56;1.77;;;1.65;;
37157;SDS011;23050;51.776;22.638;2022-08-19T00:26:23;2.97;;;2.20;;
37157;SDS011;23050;51.776;22.638;2022-08-19T00:28:52;3.17;;;2.05;;
37157;SDS011;23050;51.776;22.638;2022-08-19T00:31:18;2.25;;;2.03;;
37157;SDS011;23050;51.776;22.638;2022-08-19T00:33:44;3.50;;;2.72;;
37157;SDS011;23050;51.776;22.638;2022-08-19T00:36:10;1.42;;;1.13;;
37157;SDS011;23050;51.776;22.638;2022-08-19T00:38:36;8.90;;;2.22;;
37157;SDS011;23050;51.776;22.638;2022-08-19T00:41:06;1.13;;;1.05;;
37157;SDS011;23050;51.776;22.638;2022-08-19T00:43:32;2.55;;;2.35;;
37157;SDS011;23050;51.776;22.638;2022-08-19T00:45:58;3.33;;;2.38;;
37157;SDS011;23050;51.776;22.638;2022-08-19T00:48:23;1.85;;;1.75;;
37157;SDS011;23050;51.776;22.638;2022-08-19T00:50:49;1.98;;;1.27;;
37157;SDS011;23050;51.776;22.638;2022-08-19T00:53:18;2.28;;;1.73;;
37157;SDS011;23050;51.776;22.638;2022-08-19T00:55:47;5.00;;;2.40;;
37157;SDS011;23050;51.776;22.638;2022-08-19T00:58:15;3.58;;;1.80;;
37157;SDS011;23050;51.776;22.638;2022-08-19T01:00:44;2.47;;;1.42;;
37157;SDS011;23050;51.776;22.638;2022-08-19T01:03:13;3.30;;;1.38;;
37157;SDS011;23050;51.776;22.638;2022-08-19T01:05:42;1.80;;;1.70;;
37157;SDS011;23050;51.776;22.638;2022-08-19T01:08:10;1.58;;;1.40;;
37157;SDS011;23050;51.776;22.638;2022-08-19T01:10:38;1.52;;;1.42;;
37157;SDS011;23050;51.776;22.638;2022-08-19T01:13:06;1.75;;;1.65;;
37157;SDS011;23050;51.776;22.638;2022-08-19T01:15:34;1.27;;;1.17;;
37157;SDS011;23050;51.776;22.638;2022-08-19T01:18:05;2.78;;;1.98;;
37157;SDS011;23050;51.776;22.638;2022-08-19T01:20:35;3.13;;;1.08;;
37157;SDS011;23050;51.776;22.638;2022-08-19T01:23:01;4.28;;;3.08;;
37157;SDS011;23050;51.776;22.638;2022-08-19T01:25:32;12.98;;;2.72;;
37157;SDS011;23050;51.776;22.638;2022-08-19T01:28:06;2.85;;;1.83;;
37157;SDS011;23050;51.776;22.638;2022-08-19T01:30:33;2.63;;;1.67;;
37157;SDS011;23050;51.776;22.638;2022-08-19T01:33:00;1.63;;;1.52;;
37157;SDS011;23050;51.776;22.638;2022-08-19T01:35:27;1.05;;;1.02;;
37157;SDS011;23050;51.776;22.638;2022-08-19T01:38:05;1.83;;;1.67;;
37157;SDS011;23050;51.776;22.638;2022-08-19T01:40:33;2.42;;;1.83;;
37157;SDS011;23050;51.776;22.638;2022-08-19T01:43:01;3.10;;;1.80;;
37157;SDS011;23050;51.776;22.638;2022-08-19T01:45:28;1.05;;;0.90;;
37157;SDS011;23050;51.776;22.638;2022-08-19T01:47:55;2.42;;;1.73;;
37157;SDS011;23050;51.776;22.638;2022-08-19T01:50:21;1.60;;;1.10;;
37157;SDS011;23050;51.776;22.638;2022-08-19T01:52:47;0.75;;;0.75;;
37157;SDS011;23050;51.776;22.638;2022-08-19T01:55:14;2.53;;;1.38;;
37157;SDS011;23050;51.776;22.638;2022-08-19T01:57:46;1.25;;;1.10;;
37157;SDS011;23050;51.776;22.638;2022-08-19T02:00:17;4.38;;;1.75;;
37157;SDS011;23050;51.776;22.638;2022-08-19T02:02:44;1.70;;;1.60;;
37157;SDS011;23050;51.776;22.638;2022-08-19T02:05:10;5.82;;;1.40;;
37157;SDS011;23050;51.776;22.638;2022-08-19T02:07:37;5.35;;;2.75;;
37157;SDS011;23050;51.776;22.638;2022-08-19T02:10:06;3.20;;;1.15;;
37157;SDS011;23050;51.776;22.638;2022-08-19T02:15:00;3.72;;;1.13;;
37157;SDS011;23050;51.776;22.638;2022-08-19T02:17:27;3.55;;;2.92;;
37157;SDS011;23050;51.776;22.638;2022-08-19T02:19:54;1.23;;;0.95;;
37157;SDS011;23050;51.776;22.638;2022-08-19T02:22:22;1.38;;;1.27;;
37157;SDS011;23050;51.776;22.638;2022-08-19T02:24:50;2.05;;;1.85;;
37157;SDS011;23050;51.776;22.638;2022-08-19T02:27:16;1.75;;;1.08;;
37157;SDS011;23050;51.776;22.638;2022-08-19T02:29:42;4.93;;;1.85;;
37157;SDS011;23050;51.776;22.638;2022-08-19T02:32:10;1.23;;;1.13;;
37157;SDS011;23050;51.776;22.638;2022-08-19T02:34:35;2.13;;;1.17;;
37157;SDS011;23050;51.776;22.638;2022-08-19T02:37:01;0.93;;;0.93;;
37157;SDS011;23050;51.776;22.638;2022-08-19T02:39:27;1.38;;;1.00;;
37157;SDS011;23050;51.776;22.638;2022-08-19T02:41:52;0.77;;;0.75;;
37157;SDS011;23050;51.776;22.638;2022-08-19T02:44:18;1.52;;;1.42;;
37157;SDS011;23050;51.776;22.638;2022-08-19T02:46:45;1.20;;;1.08;;
37157;SDS011;23050;51.776;22.638;2022-08-19T02:49:12;3.28;;;2.53;;
37157;SDS011;23050;51.776;22.638;2022-08-19T02:51:41;2.92;;;1.10;;
37157;SDS011;23050;51.776;22.638;2022-08-19T02:54:08;1.35;;;1.25;;
37157;SDS011;23050;51.776;22.638;2022-08-19T02:56:36;4.22;;;2.33;;
37157;SDS011;23050;51.776;22.638;2022-08-19T02:59:03;6.78;;;2.38;;
37157;SDS011;23050;51.776;22.638;2022-08-19T03:01:36;3.53;;;2.60;;
37157;SDS011;23050;51.776;22.638;2022-08-19T03:04:05;2.13;;;1.95;;
37157;SDS011;23050;51.776;22.638;2022-08-19T03:06:32;3.20;;;1.67;;
37157;SDS011;23050;51.776;22.638;2022-08-19T03:09:00;3.15;;;2.47;;
37157;SDS011;23050;51.776;22.638;2022-08-19T03:11:30;1.90;;;1.60;;
37157;SDS011;23050;51.776;22.638;2022-08-19T03:13:57;2.50;;;2.22;;
37157;SDS011;23050;51.776;22.638;2022-08-19T03:16:24;3.78;;;1.63;;
37157;SDS011;23050;51.776;22.638;2022-08-19T03:18:50;2.35;;;1.83;;
37157;SDS011;23050;51.776;22.638;2022-08-19T03:21:22;2.17;;;1.35;;
37157;SDS011;23050;51.776;22.638;2022-08-19T03:23:50;1.45;;;1.33;;
37157;SDS011;23050;51.776;22.638;2022-08-19T03:26:19;4.40;;;2.50;;
37157;SDS011;23050;51.776;22.638;2022-08-19T03:28:45;2.83;;;1.40;;
37157;SDS011;23050;51.776;22.638;2022-08-19T03:31:15;2.00;;;1.48;;
37157;SDS011;23050;51.776;22.638;2022-08-19T03:33:43;2.03;;;1.15;;
37157;SDS011;23050;51.776;22.638;2022-08-19T03:36:11;2.75;;;1.50;;
37157;SDS011;23050;51.776;22.638;2022-08-19T03:38:40;2.97;;;1.88;;
37157;SDS011;23050;51.776;22.638;2022-08-19T03:41:08;2.00;;;1.50;;
37157;SDS011;23050;51.776;22.638;2022-08-19T03:43:40;1.73;;;1.50;;
37157;SDS011;23050;51.776;22.638;2022-08-19T03:46:08;2.15;;;1.95;;
37157;SDS011;23050;51.776;22.638;2022-08-19T03:48:36;2.92;;;1.48;;
37157;SDS011;23050;51.776;22.638;2022-08-19T03:51:03;2.20;;;2.00;;
37157;SDS011;23050;51.776;22.638;2022-08-19T03:53:31;2.67;;;2.00;;
37157;SDS011;23050;51.776;22.638;2022-08-19T03:55:57;1.92;;;1.45;;
37157;SDS011;23050;51.776;22.638;2022-08-19T03:58:27;0.85;;;0.85;;
37157;SDS011;23050;51.776;22.638;2022-08-19T04:00:57;1.88;;;1.58;;
37157;SDS011;23050;51.776;22.638;2022-08-19T04:03:24;3.45;;;2.72;;
37157;SDS011;23050;51.776;22.638;2022-08-19T04:05:51;3.53;;;2.40;;
37157;SDS011;23050;51.776;22.638;2022-08-19T04:08:18;2.10;;;1.90;;
37157;SDS011;23050;51.776;22.638;2022-08-19T04:10:47;2.33;;;2.13;;
37157;SDS011;23050;51.776;22.638;2022-08-19T04:13:14;2.88;;;2.28;;
37157;SDS011;23050;51.776;22.638;2022-08-19T04:15:41;3.22;;;2.67;;
37157;SDS011;23050;51.776;22.638;2022-08-19T04:18:08;7.03;;;2.80;;
37157;SDS011;23050;51.776;22.638;2022-08-19T04:20:39;2.60;;;1.83;;
37157;SDS011;23050;51.776;22.638;2022-08-19T04:23:06;2.50;;;1.30;;
37157;SDS011;23050;51.776;22.638;2022-08-19T04:25:35;1.50;;;1.40;;
37157;SDS011;23050;51.776;22.638;2022-08-19T04:28:02;3.88;;;2.72;;
37157;SDS011;23050;51.776;22.638;2022-08-19T04:30:28;2.13;;;2.00;;
37157;SDS011;23050;51.776;22.638;2022-08-19T04:32:53;10.02;;;4.20;;
37157;SDS011;23050;51.776;22.638;2022-08-19T04:35:19;2.83;;;2.50;;
37157;SDS011;23050;51.776;22.638;2022-08-19T04:37:45;1.88;;;1.67;;
37157;SDS011;23050;51.776;22.638;2022-08-19T04:40:10;9.10;;;3.22;;
37157;SDS011;23050;51.776;22.638;2022-08-19T04:42:55;4.05;;;2.53;;
37157;SDS011;23050;51.776;22.638;2022-08-19T04:45:21;2.22;;;2.03;;
37157;SDS011;23050;51.776;22.638;2022-08-19T04:47:46;3.25;;;2.50;;
37157;SDS011;23050;51.776;22.638;2022-08-19T04:50:12;1.80;;;1.48;;
37157;SDS011;23050;51.776;22.638;2022-08-19T04:52:38;2.72;;;1.73;;
37157;SDS011;23050;51.776;22.638;2022-08-19T04:55:09;26.80;;;2.33;;
37157;SDS011;23050;51.776;22.638;2022-08-19T04:57:35;3.80;;;2.05;;
37157;SDS011;23050;51.776;22.638;2022-08-19T05:00:05;3.20;;;2.05;;
37157;SDS011;23050;51.776;22.638;2022-08-19T05:02:32;1.20;;;1.13;;
37157;SDS011;23050;51.776;22.638;2022-08-19T05:04:58;1.20;;;1.10;;
37157;SDS011;23050;51.776;22.638;2022-08-19T05:07:27;2.35;;;1.20;;
37157;SDS011;23050;51.776;22.638;2022-08-19T05:09:54;1.50;;;1.20;;
37157;SDS011;23050;51.776;22.638;2022-08-19T05:12:20;1.50;;;1.05;;
37157;SDS011;23050;51.776;22.638;2022-08-19T05:14:46;2.05;;;1.40;;
37157;SDS011;23050;51.776;22.638;2022-08-19T05:17:13;2.10;;;1.52;;
37157;SDS011;23050;51.776;22.638;2022-08-19T05:19:39;1.98;;;1.27;;
37157;SDS011;23050;51.776;22.638;2022-08-19T05:22:23;2.80;;;1.33;;
37157;SDS011;23050;51.776;22.638;2022-08-19T05:25:00;1.60;;;1.50;;
37157;SDS011;23050;51.776;22.638;2022-08-19T05:27:30;1.95;;;0.77;;
37157;SDS011;23050;51.776;22.638;2022-08-19T05:29:57;0.75;;;0.75;;
37157;SDS011;23050;51.776;22.638;2022-08-19T05:32:22;1.35;;;1.25;;
37157;SDS011;23050;51.776;22.638;2022-08-19T05:34:48;1.63;;;1.35;;
37157;SDS011;23050;51.776;22.638;2022-08-19T05:37:14;1.90;;;1.33;;
37157;SDS011;23050;51.776;22.638;2022-08-19T05:39:39;1.65;;;1.17;;
37157;SDS011;23050;51.776;22.638;2022-08-19T05:42:08;1.38;;;1.15;;
37157;SDS011;23050;51.776;22.638;2022-08-19T05:44:37;1.33;;;1.23;;
37157;SDS011;23050;51.776;22.638;2022-08-19T05:47:05;2.25;;;1.75;;
37157;SDS011;23050;51.776;22.638;2022-08-19T05:49:33;1.98;;;1.20;;
37157;SDS011;23050;51.776;22.638;2022-08-19T05:52:02;1.33;;;1.23;;
37157;SDS011;23050;51.776;22.638;2022-08-19T05:54:29;4.13;;;1.20;;
37157;SDS011;23050;51.776;22.638;2022-08-19T05:56:55;2.97;;;1.42;;
37157;SDS011;23050;51.776;22.638;2022-08-19T05:59:21;1.15;;;0.95;;
37157;SDS011;23050;51.776;22.638;2022-08-19T06:01:48;1.10;;;1.00;;
37157;SDS011;23050;51.776;22.638;2022-08-19T06:04:15;2.05;;;1.48;;
37157;SDS011;23050;51.776;22.638;2022-08-19T06:06:44;1.63;;;0.90;;
37157;SDS011;23050;51.776;22.638;2022-08-19T06:09:11;0.35;;;0.35;;
37157;SDS011;23050;51.776;22.638;2022-08-19T06:11:41;4.78;;;1.95;;
37157;SDS011;23050;51.776;22.638;2022-08-19T06:14:10;1.50;;;1.13;;
37157;SDS011;23050;51.776;22.638;2022-08-19T06:16:39;0.93;;;0.82;;
37157;SDS011;23050;51.776;22.638;2022-08-19T06:19:06;1.30;;;1.15;;
37157;SDS011;23050;51.776;22.638;2022-08-19T06:21:35;1.65;;;1.25;;
37157;SDS011;23050;51.776;22.638;2022-08-19T06:24:02;0.55;;;0.55;;
37157;SDS011;23050;51.776;22.638;2022-08-19T06:26:29;0.40;;;0.40;;
37157;SDS011;23050;51.776;22.638;2022-08-19T06:28:55;0.75;;;0.68;;
37157;SDS011;23050;51.776;22.638;2022-08-19T06:31:23;3.10;;;1.08;;
37157;SDS011;23050;51.776;22.638;2022-08-19T06:33:50;3.78;;;1.55;;
37157;SDS011;23050;51.776;22.638;2022-08-19T06:39:18;4.10;;;1.52;;
37157;SDS011;23050;51.776;22.638;2022-08-19T06:41:45;1.60;;;1.23;;
37157;SDS011;23050;51.776;22.638;2022-08-19T06:44:12;0.65;;;0.65;;
37157;SDS011;23050;51.776;22.638;2022-08-19T06:46:38;5.85;;;2.53;;
37157;SDS011;23050;51.776;22.638;2022-08-19T06:49:05;0.65;;;0.65;;
37157;SDS011;23050;51.776;22.638;2022-08-19T06:51:34;1.23;;;0.95;;
37157;SDS011;23050;51.776;22.638;2022-08-19T06:53:59;0.80;;;0.80;;
37157;SDS011;23050;51.776;22.638;2022-08-19T06:56:27;0.88;;;0.85;;
37157;SDS011;23050;51.776;22.638;2022-08-19T06:58:58;0.45;;;0.45;;
37157;SDS011;23050;51.776;22.638;2022-08-19T07:01:29;0.73;;;0.50;;
37157;SDS011;23050;51.776;22.638;2022-08-19T07:03:54;1.02;;;0.63;;
37157;SDS011;23050;51.776;22.638;2022-08-19T07:06:21;4.43;;;1.60;;
37157;SDS011;23050;51.776;22.638;2022-08-19T07:08:47;0.60;;;0.60;;
37157;SDS011;23050;51.776;22.638;2022-08-19T07:11:14;2.63;;;1.23;;
37157;SDS011;23050;51.776;22.638;2022-08-19T07:13:42;0.63;;;0.57;;
37157;SDS011;23050;51.776;22.638;2022-08-19T07:16:15;0.93;;;0.88;;
37157;SDS011;23050;51.776;22.638;2022-08-19T07:18:47;1.63;;;0.82;;
37157;SDS011;23050;51.776;22.638;2022-08-19T07:21:25;5.68;;;1.85;;
37157;SDS011;23050;51.776;22.638;2022-08-19T07:23:53;2.25;;;1.08;;
37157;SDS011;23050;51.776;22.638;2022-08-19T07:26:25;1.75;;;1.05;;
37157;SDS011;23050;51.776;22.638;2022-08-19T07:28:53;0.43;;;0.43;;
37157;SDS011;23050;51.776;22.638;2022-08-19T07:31:21;1.73;;;0.80;;
37157;SDS011;23050;51.776;22.638;2022-08-19T07:33:48;0.32;;;0.32;;
37157;SDS011;23050;51.776;22.638;2022-08-19T07:36:17;0.88;;;0.60;;
37157;SDS011;23050;51.776;22.638;2022-08-19T07:38:46;0.40;;;0.40;;
37157;SDS011;23050;51.776;22.638;2022-08-19T07:41:15;2.53;;;1.55;;
37157;SDS011;23050;51.776;22.638;2022-08-19T07:43:47;0.50;;;0.50;;
37157;SDS011;23050;51.776;22.638;2022-08-19T07:46:16;2.03;;;0.88;;
37157;SDS011;23050;51.776;22.638;2022-08-19T07:48:42;1.10;;;0.90;;
37157;SDS011;23050;51.776;22.638;2022-08-19T07:51:10;0.55;;;0.55;;
37157;SDS011;23050;51.776;22.638;2022-08-19T07:53:36;0.30;;;0.30;;
37157;SDS011;23050;51.776;22.638;2022-08-19T07:56:03;0.80;;;0.63;;
37157;SDS011;23050;51.776;22.638;2022-08-19T07:58:31;1.98;;;0.75;;
37157;SDS011;23050;51.776;22.638;2022-08-19T08:00:58;1.77;;;1.10;;
37157;SDS011;23050;51.776;22.638;2022-08-19T08:03:24;2.05;;;1.20;;
37157;SDS011;23050;51.776;22.638;2022-08-19T08:06:11;0.95;;;0.70;;
37157;SDS011;23050;51.776;22.638;2022-08-19T08:08:56;2.13;;;0.88;;
37157;SDS011;23050;51.776;22.638;2022-08-19T08:11:45;0.70;;;0.70;;
37157;SDS011;23050;51.776;22.638;2022-08-19T08:14:15;0.20;;;0.20;;
37157;SDS011;23050;51.776;22.638;2022-08-19T08:17:03;0.60;;;0.60;;
37157;SDS011;23050;51.776;22.638;2022-08-19T08:21:56;1.33;;;0.40;;
37157;SDS011;23050;51.776;22.638;2022-08-19T08:24:24;0.28;;;0.28;;
37157;SDS011;23050;51.776;22.638;2022-08-19T08:26:50;0.40;;;0.40;;
37157;SDS011;23050;51.776;22.638;2022-08-19T08:29:16;0.77;;;0.40;;
37157;SDS011;23050;51.776;22.638;2022-08-19T08:31:42;0.20;;;0.20;;
37157;SDS011;23050;51.776;22.638;2022-08-19T08:34:12;5.53;;;2.17;;
37157;SDS011;23050;51.776;22.638;2022-08-19T08:36:39;0.43;;;0.43;;
37157;SDS011;23050;51.776;22.638;2022-08-19T08:39:11;0.68;;;0.50;;
37157;SDS011;23050;51.776;22.638;2022-08-19T08:44:49;0.45;;;0.45;;
37157;SDS011;23050;51.776;22.638;2022-08-19T08:47:15;0.77;;;0.73;;
37157;SDS011;23050;51.776;22.638;2022-08-19T08:49:46;1.27;;;0.60;;
37157;SDS011;23050;51.776;22.638;2022-08-19T08:54:54;0.25;;;0.25;;
37157;SDS011;23050;51.776;22.638;2022-08-19T08:57:24;0.43;;;0.43;;
37157;SDS011;23050;51.776;22.638;2022-08-19T09:00:25;0.73;;;0.70;;
37157;SDS011;23050;51.776;22.638;2022-08-19T09:02:55;0.55;;;0.55;;
37157;SDS011;23050;51.776;22.638;2022-08-19T09:05:22;0.52;;;0.52;;
37157;SDS011;23050;51.776;22.638;2022-08-19T09:07:59;1.20;;;1.10;;
37157;SDS011;23050;51.776;22.638;2022-08-19T09:10:49;1.15;;;0.65;;
37157;SDS011;23050;51.776;22.638;2022-08-19T09:18:56;0.20;;;0.20;;
37157;SDS011;23050;51.776;22.638;2022-08-19T09:21:25;5.35;;;1.15;;
37157;SDS011;23050;51.776;22.638;2022-08-19T09:23:53;0.88;;;0.85;;
37157;SDS011;23050;51.776;22.638;2022-08-19T09:26:20;1.25;;;0.73;;
37157;SDS011;23050;51.776;22.638;2022-08-19T09:28:48;1.55;;;0.93;;
37157;SDS011;23050;51.776;22.638;2022-08-19T09:31:19;0.22;;;0.22;;
37157;SDS011;23050;51.776;22.638;2022-08-19T09:33:47;0.68;;;0.68;;
37157;SDS011;23050;51.776;22.638;2022-08-19T09:36:15;0.47;;;0.47;;
37157;SDS011;23050;51.776;22.638;2022-08-19T09:38:42;0.17;;;0.17;;
37157;SDS011;23050;51.776;22.638;2022-08-19T09:41:11;6.17;;;1.37;;
37157;SDS011;23050;51.776;22.638;2022-08-19T09:43:39;0.22;;;0.20;;
37157;SDS011;23050;51.776;22.638;2022-08-19T09:46:06;1.13;;;0.77;;
37157;SDS011;23050;51.776;22.638;2022-08-19T09:48:34;0.93;;;0.55;;
37157;SDS011;23050;51.776;22.638;2022-08-19T09:51:09;0.30;;;0.30;;
37157;SDS011;23050;51.776;22.638;2022-08-19T09:53:45;0.30;;;0.30;;
37157;SDS011;23050;51.776;22.638;2022-08-19T09:56:15;1.00;;;0.43;;
37157;SDS011;23050;51.776;22.638;2022-08-19T09:58:42;10.50;;;1.08;;
37157;SDS011;23050;51.776;22.638;2022-08-19T10:01:08;0.68;;;0.60;;
37157;SDS011;23050;51.776;22.638;2022-08-19T10:03:40;0.80;;;0.50;;
37157;SDS011;23050;51.776;22.638;2022-08-19T10:06:05;0.85;;;0.82;;
37157;SDS011;23050;51.776;22.638;2022-08-19T10:08:33;0.30;;;0.30;;
37157;SDS011;23050;51.776;22.638;2022-08-19T10:11:01;1.08;;;0.90;;
37157;SDS011;23050;51.776;22.638;2022-08-19T10:13:30;0.68;;;0.57;;
37157;SDS011;23050;51.776;22.638;2022-08-19T10:16:02;0.63;;;0.63;;
37157;SDS011;23050;51.776;22.638;2022-08-19T10:18:35;0.30;;;0.30;;
37157;SDS011;23050;51.776;22.638;2022-08-19T10:21:04;0.75;;;0.73;;
37157;SDS011;23050;51.776;22.638;2022-08-19T10:23:33;0.38;;;0.38;;
37157;SDS011;23050;51.776;22.638;2022-08-19T10:26:00;0.13;;;0.13;;
37157;SDS011;23050;51.776;22.638;2022-08-19T10:28:26;0.68;;;0.60;;
37157;SDS011;23050;51.776;22.638;2022-08-19T10:30:51;0.20;;;0.20;;
37157;SDS011;23050;51.776;22.638;2022-08-19T10:33:18;1.17;;;0.40;;
37157;SDS011;23050;51.776;22.638;2022-08-19T10:35:43;0.43;;;0.40;;
37157;SDS011;23050;51.776;22.638;2022-08-19T10:38:11;1.50;;;1.13;;
37157;SDS011;23050;51.776;22.638;2022-08-19T10:40:37;0.35;;;0.35;;
37157;SDS011;23050;51.776;22.638;2022-08-19T10:43:03;0.80;;;0.70;;
37157;SDS011;23050;51.776;22.638;2022-08-19T10:45:28;0.80;;;0.60;;
37157;SDS011;23050;51.776;22.638;2022-08-19T10:47:54;1.02;;;0.75;;
37157;SDS011;23050;51.776;22.638;2022-08-19T10:50:20;0.20;;;0.20;;
37157;SDS011;23050;51.776;22.638;2022-08-19T10:53:05;0.70;;;0.70;;
37157;SDS011;23050;51.776;22.638;2022-08-19T10:55:35;0.68;;;0.68;;
37157;SDS011;23050;51.776;22.638;2022-08-19T10:58:21;0.57;;;0.47;;
37157;SDS011;23050;51.776;22.638;2022-08-19T11:00:54;1.15;;;0.80;;
37157;SDS011;23050;51.776;22.638;2022-08-19T11:03:22;0.20;;;0.20;;
37157;SDS011;23050;51.776;22.638;2022-08-19T11:06:04;0.63;;;0.40;;
37157;SDS011;23050;51.776;22.638;2022-08-19T11:08:33;0.35;;;0.35;;
37157;SDS011;23050;51.776;22.638;2022-08-19T11:11:02;0.50;;;0.50;;
37157;SDS011;23050;51.776;22.638;2022-08-19T11:13:30;2.45;;;1.02;;
37157;SDS011;23050;51.776;22.638;2022-08-19T11:16:17;0.28;;;0.22;;
37157;SDS011;23050;51.776;22.638;2022-08-19T11:21:17;0.43;;;0.43;;
37157;SDS011;23050;51.776;22.638;2022-08-19T11:23:48;0.40;;;0.40;;
37157;SDS011;23050;51.776;22.638;2022-08-19T11:26:17;0.30;;;0.22;;
37157;SDS011;23050;51.776;22.638;2022-08-19T11:28:43;0.40;;;0.40;;
37157;SDS011;23050;51.776;22.638;2022-08-19T11:31:16;0.90;;;0.80;;
37157;SDS011;23050;51.776;22.638;2022-08-19T11:33:44;0.73;;;0.73;;
37157;SDS011;23050;51.776;22.638;2022-08-19T11:36:11;1.05;;;0.95;;
37157;SDS011;23050;51.776;22.638;2022-08-19T11:38:37;4.28;;;1.70;;
37157;SDS011;23050;51.776;22.638;2022-08-19T11:41:05;0.52;;;0.43;;
37157;SDS011;23050;51.776;22.638;2022-08-19T11:43:32;0.40;;;0.40;;
37157;SDS011;23050;51.776;22.638;2022-08-19T11:45:59;0.28;;;0.28;;
37157;SDS011;23050;51.776;22.638;2022-08-19T11:48:28;0.30;;;0.30;;
37157;SDS011;23050;51.776;22.638;2022-08-19T11:50:53;0.63;;;0.47;;
37157;SDS011;23050;51.776;22.638;2022-08-19T11:53:21;0.97;;;0.87;;
37157;SDS011;23050;51.776;22.638;2022-08-19T11:55:47;0.47;;;0.47;;
37157;SDS011;23050;51.776;22.638;2022-08-19T11:58:14;0.15;;;0.15;;
37157;SDS011;23050;51.776;22.638;2022-08-19T12:00:41;0.43;;;0.43;;
37157;SDS011;23050;51.776;22.638;2022-08-19T12:03:07;0.63;;;0.47;;
37157;SDS011;23050;51.776;22.638;2022-08-19T12:05:33;0.63;;;0.63;;
37157;SDS011;23050;51.776;22.638;2022-08-19T12:08:01;0.60;;;0.60;;
37157;SDS011;23050;51.776;22.638;2022-08-19T12:10:26;0.30;;;0.30;;
37157;SDS011;23050;51.776;22.638;2022-08-19T12:12:52;0.40;;;0.40;;
37157;SDS011;23050;51.776;22.638;2022-08-19T12:15:18;0.35;;;0.35;;
37157;SDS011;23050;51.776;22.638;2022-08-19T12:17:43;0.40;;;0.40;;
37157;SDS011;23050;51.776;22.638;2022-08-19T12:20:09;0.50;;;0.50;;
37157;SDS011;23050;51.776;22.638;2022-08-19T12:22:36;0.28;;;0.20;;
37157;SDS011;23050;51.776;22.638;2022-08-19T12:25:03;0.45;;;0.45;;
37157;SDS011;23050;51.776;22.638;2022-08-19T12:27:29;1.58;;;1.15;;
37157;SDS011;23050;51.776;22.638;2022-08-19T12:29:55;3.05;;;0.98;;
37157;SDS011;23050;51.776;22.638;2022-08-19T12:32:21;0.43;;;0.43;;
37157;SDS011;23050;51.776;22.638;2022-08-19T12:34:49;0.73;;;0.73;;
37157;SDS011;23050;51.776;22.638;2022-08-19T12:37:15;0.80;;;0.80;;
37157;SDS011;23050;51.776;22.638;2022-08-19T12:39:42;1.60;;;1.23;;
37157;SDS011;23050;51.776;22.638;2022-08-19T12:42:09;2.10;;;0.73;;
37157;SDS011;23050;51.776;22.638;2022-08-19T12:44:36;0.60;;;0.60;;
37157;SDS011;23050;51.776;22.638;2022-08-19T12:47:04;0.32;;;0.30;;
37157;SDS011;23050;51.776;22.638;2022-08-19T12:49:31;0.73;;;0.60;;
37157;SDS011;23050;51.776;22.638;2022-08-19T12:51:58;1.20;;;0.70;;
37157;SDS011;23050;51.776;22.638;2022-08-19T12:54:30;0.30;;;0.30;;
37157;SDS011;23050;51.776;22.638;2022-08-19T12:56:58;0.50;;;0.20;;
37157;SDS011;23050;51.776;22.638;2022-08-19T12:59:24;3.28;;;1.33;;
37157;SDS011;23050;51.776;22.638;2022-08-19T13:01:51;2.28;;;0.80;;
37157;SDS011;23050;51.776;22.638;2022-08-19T13:04:16;0.45;;;0.45;;
37157;SDS011;23050;51.776;22.638;2022-08-19T13:06:42;0.60;;;0.50;;
37157;SDS011;23050;51.776;22.638;2022-08-19T13:09:08;0.45;;;0.43;;
37157;SDS011;23050;51.776;22.638;2022-08-19T13:11:34;1.08;;;0.90;;
37157;SDS011;23050;51.776;22.638;2022-08-19T13:14:01;0.32;;;0.32;;
37157;SDS011;23050;51.776;22.638;2022-08-19T13:16:28;0.75;;;0.75;;
37157;SDS011;23050;51.776;22.638;2022-08-19T13:18:54;0.65;;;0.40;;
37157;SDS011;23050;51.776;22.638;2022-08-19T13:21:22;0.40;;;0.40;;
37157;SDS011;23050;51.776;22.638;2022-08-19T13:23:50;0.30;;;0.30;;
37157;SDS011;23050;51.776;22.638;2022-08-19T13:26:17;0.25;;;0.25;;
37157;SDS011;23050;51.776;22.638;2022-08-19T13:28:43;0.55;;;0.47;;
37157;SDS011;23050;51.776;22.638;2022-08-19T13:31:30;0.30;;;0.30;;
37157;SDS011;23050;51.776;22.638;2022-08-19T13:34:16;0.77;;;0.77;;
37157;SDS011;23050;51.776;22.638;2022-08-19T13:36:44;0.43;;;0.43;;
37157;SDS011;23050;51.776;22.638;2022-08-19T13:39:10;0.82;;;0.47;;
37157;SDS011;23050;51.776;22.638;2022-08-19T13:41:36;0.32;;;0.32;;
37157;SDS011;23050;51.776;22.638;2022-08-19T13:44:02;1.63;;;0.55;;
37157;SDS011;23050;51.776;22.638;2022-08-19T13:46:31;0.52;;;0.50;;
37157;SDS011;23050;51.776;22.638;2022-08-19T13:48:56;0.20;;;0.20;;
37157;SDS011;23050;51.776;22.638;2022-08-19T13:51:22;0.30;;;0.30;;
37157;SDS011;23050;51.776;22.638;2022-08-19T13:53:48;0.68;;;0.68;;
37157;SDS011;23050;51.776;22.638;2022-08-19T13:56:16;0.38;;;0.38;;
37157;SDS011;23050;51.776;22.638;2022-08-19T13:58:44;0.30;;;0.30;;
37157;SDS011;23050;51.776;22.638;2022-08-19T14:01:11;0.82;;;0.43;;
37157;SDS011;23050;51.776;22.638;2022-08-19T14:03:37;0.47;;;0.47;;
37157;SDS011;23050;51.776;22.638;2022-08-19T14:06:06;0.38;;;0.38;;
37157;SDS011;23050;51.776;22.638;2022-08-19T14:08:32;0.38;;;0.38;;
37157;SDS011;23050;51.776;22.638;2022-08-19T14:10:57;0.52;;;0.52;;
37157;SDS011;23050;51.776;22.638;2022-08-19T14:13:24;0.35;;;0.35;;
37157;SDS011;23050;51.776;22.638;2022-08-19T14:15:50;0.63;;;0.28;;
37157;SDS011;23050;51.776;22.638;2022-08-19T14:18:17;0.88;;;0.57;;
37157;SDS011;23050;51.776;22.638;2022-08-19T14:20:43;0.20;;;0.20;;
37157;SDS011;23050;51.776;22.638;2022-08-19T14:23:09;0.73;;;0.73;;
37157;SDS011;23050;51.776;22.638;2022-08-19T14:25:37;0.37;;;0.33;;
37157;SDS011;23050;51.776;22.638;2022-08-19T14:28:03;0.20;;;0.20;;
37157;SDS011;23050;51.776;22.638;2022-08-19T14:30:29;0.28;;;0.28;;
37157;SDS011;23050;51.776;22.638;2022-08-19T14:32:57;0.20;;;0.20;;
37157;SDS011;23050;51.776;22.638;2022-08-19T14:35:24;3.30;;;0.85;;
37157;SDS011;23050;51.776;22.638;2022-08-19T14:37:52;1.35;;;0.50;;
37157;SDS011;23050;51.776;22.638;2022-08-19T14:40:23;1.05;;;0.60;;
37157;SDS011;23050;51.776;22.638;2022-08-19T14:42:54;1.15;;;0.80;;
37157;SDS011;23050;51.776;22.638;2022-08-19T14:45:24;0.47;;;0.38;;
37157;SDS011;23050;51.776;22.638;2022-08-19T14:47:55;0.43;;;0.43;;
37157;SDS011;23050;51.776;22.638;2022-08-19T14:50:21;0.70;;;0.50;;
37157;SDS011;23050;51.776;22.638;2022-08-19T14:52:47;0.17;;;0.17;;
37157;SDS011;23050;51.776;22.638;2022-08-19T14:55:14;0.68;;;0.68;;
37157;SDS011;23050;51.776;22.638;2022-08-19T14:57:41;0.38;;;0.38;;
37157;SDS011;23050;51.776;22.638;2022-08-19T15:00:08;0.73;;;0.73;;
37157;SDS011;23050;51.776;22.638;2022-08-19T15:02:40;0.57;;;0.43;;